createdAt,value
2022-07-27T00:01:21.788Z,22.20
2022-07-27T00:03:49.839Z,22.20
2022-07-27T00:06:17.744Z,22.20
2022-07-27T00:08:45.643Z,22.20
2022-07-27T00:11:14.918Z,22.10
2022-07-27T00:13:42.772Z,22.10
2022-07-27T00:16:10.672Z,22.10
2022-07-27T00:18:39.037Z,22.10
2022-07-27T00:21:06.954Z,22.10
2022-07-27T00:23:35.117Z,22.00
2022-07-27T00:26:02.913Z,22.10
2022-07-27T00:28:32.189Z,22.00
2022-07-27T00:31:00.388Z,22.00
2022-07-27T00:33:28.765Z,21.90
2022-07-27T00:35:56.582Z,21.90
2022-07-27T00:38:25.126Z,21.90
2022-07-27T00:40:53.717Z,21.90
2022-07-27T00:43:21.646Z,21.90
2022-07-27T00:45:50.964Z,21.90
2022-07-27T00:48:18.837Z,22.30
2022-07-27T00:50:48.165Z,21.80
2022-07-27T00:53:16.822Z,21.90
2022-07-27T00:55:46.597Z,21.90
2022-07-27T00:58:14.670Z,21.80
2022-07-27T01:00:42.502Z,21.80
2022-07-27T01:03:12.094Z,21.80
2022-07-27T01:05:43.425Z,21.80
2022-07-27T01:08:13.934Z,21.80
2022-07-27T01:10:43.397Z,21.80
2022-07-27T01:13:12.950Z,21.80
2022-07-27T01:15:42.243Z,21.80
2022-07-27T01:18:13.976Z,21.80
2022-07-27T01:20:42.789Z,21.80
2022-07-27T01:23:12.089Z,21.80
2022-07-27T01:25:42.613Z,21.70
2022-07-27T01:28:10.472Z,21.70
2022-07-27T01:30:38.345Z,21.70
2022-07-27T01:33:07.581Z,21.70
2022-07-27T01:35:36.093Z,21.70
2022-07-27T01:38:04.382Z,21.60
2022-07-27T01:40:34.073Z,21.60
2022-07-27T01:43:01.884Z,21.60
2022-07-27T01:45:30.041Z,21.60
2022-07-27T01:47:57.936Z,21.50
2022-07-27T01:50:25.782Z,21.50
2022-07-27T01:52:53.612Z,21.50
2022-07-27T01:55:21.593Z,21.50
2022-07-27T01:57:50.813Z,21.40
2022-07-27T02:00:18.864Z,21.40
2022-07-27T02:02:46.675Z,21.40
2022-07-27T02:05:14.516Z,21.40
2022-07-27T02:07:42.842Z,21.40
2022-07-27T02:10:11.691Z,21.30
2022-07-27T02:12:38.667Z,21.30
2022-07-27T02:15:15.492Z,21.30
2022-07-27T02:17:43.997Z,21.30
2022-07-27T02:20:14.498Z,21.30
2022-07-27T02:22:42.493Z,21.20
2022-07-27T02:25:11.803Z,21.20
2022-07-27T02:27:39.714Z,21.20
2022-07-27T02:30:10.470Z,21.20
2022-07-27T02:32:38.325Z,21.10
2022-07-27T02:35:19.786Z,21.10
2022-07-27T02:37:48.811Z,21.10
2022-07-27T02:40:17.982Z,21.10
2022-07-27T02:42:46.217Z,21.20
2022-07-27T02:45:15.712Z,21.20
2022-07-27T02:47:44.326Z,21.20
2022-07-27T02:50:12.226Z,21.20
2022-07-27T02:52:40.718Z,21.20
2022-07-27T02:55:09.777Z,21.20
2022-07-27T02:57:40.777Z,21.20
2022-07-27T03:00:11.361Z,21.20
2022-07-27T03:02:40.679Z,21.10
2022-07-27T03:05:10.043Z,21.10
2022-07-27T03:07:38.212Z,21.10
2022-07-27T03:10:07.094Z,21.10
2022-07-27T03:12:35.111Z,21.10
2022-07-27T03:15:02.960Z,21.10
2022-07-27T03:17:30.757Z,21.10
2022-07-27T03:19:59.893Z,21.10
2022-07-27T03:22:30.813Z,21.10
2022-07-27T03:24:58.906Z,21.10
2022-07-27T03:27:26.946Z,21.10
2022-07-27T03:29:54.771Z,21.10
2022-07-27T03:32:22.583Z,21.10
2022-07-27T03:34:50.433Z,21.10
2022-07-27T03:37:20.059Z,21.10
2022-07-27T03:39:48.202Z,21.10
2022-07-27T03:42:16.055Z,21.10
2022-07-27T03:44:44.255Z,21.20
2022-07-27T03:47:12.054Z,21.20
2022-07-27T03:49:39.859Z,21.10
2022-07-27T03:52:07.866Z,21.20
2022-07-27T03:54:37.099Z,21.20
2022-07-27T03:57:05.030Z,21.10
2022-07-27T03:59:32.880Z,21.10
2022-07-27T04:02:00.740Z,21.10
2022-07-27T04:04:28.616Z,21.00
2022-07-27T04:06:56.440Z,21.00
2022-07-27T04:09:24.879Z,21.30
2022-07-27T04:11:56.192Z,21.00
2022-07-27T04:14:23.975Z,20.90
2022-07-27T04:16:51.937Z,20.90
2022-07-27T04:19:19.896Z,20.90
2022-07-27T04:21:47.713Z,20.90
2022-07-27T04:24:15.552Z,20.80
2022-07-27T04:26:43.372Z,20.80
2022-07-27T04:29:16.889Z,20.90
2022-07-27T04:31:47.993Z,20.80
2022-07-27T04:34:15.838Z,20.90
2022-07-27T04:36:43.751Z,20.80
2022-07-27T04:39:12.087Z,20.80
2022-07-27T04:41:40.191Z,20.80
2022-07-27T04:44:08.298Z,20.80
2022-07-27T04:46:37.548Z,20.80
2022-07-27T04:49:06.217Z,20.80
2022-07-27T04:51:35.341Z,20.80
2022-07-27T04:56:31.154Z,20.80
2022-07-27T04:58:59.106Z,20.80
2022-07-27T05:01:31.660Z,20.80
2022-07-27T05:04:05.181Z,20.90
2022-07-27T05:06:33.296Z,20.90
2022-07-27T05:09:01.108Z,20.80
2022-07-27T05:11:28.949Z,20.90
2022-07-27T05:13:56.764Z,20.90
2022-07-27T05:16:28.522Z,20.90
2022-07-27T05:18:57.097Z,20.80
2022-07-27T05:21:27.244Z,20.80
2022-07-27T05:23:55.607Z,20.80
2022-07-27T05:26:23.429Z,20.80
2022-07-27T05:28:51.239Z,20.80
2022-07-27T05:31:19.665Z,20.80
2022-07-27T05:33:49.820Z,20.90
2022-07-27T05:36:18.612Z,20.90
2022-07-27T05:38:47.739Z,20.90
2022-07-27T05:41:15.749Z,21.00
2022-07-27T05:43:43.702Z,21.00
2022-07-27T05:46:11.643Z,21.00
2022-07-27T05:48:39.542Z,21.00
2022-07-27T05:51:07.428Z,21.10
2022-07-27T05:53:36.014Z,21.10
2022-07-27T05:56:05.614Z,21.10
2022-07-27T05:58:33.441Z,21.10
2022-07-27T06:01:01.425Z,21.20
2022-07-27T06:03:29.505Z,21.20
2022-07-27T06:06:11.409Z,21.20
2022-07-27T06:08:39.197Z,21.20
2022-07-27T06:11:08.366Z,21.30
2022-07-27T06:13:37.124Z,21.30
2022-07-27T06:16:09.915Z,21.30
2022-07-27T06:18:38.109Z,21.30
2022-07-27T06:21:06.445Z,21.30
2022-07-27T06:23:34.339Z,21.30
2022-07-27T06:26:02.149Z,21.30
2022-07-27T06:28:31.438Z,21.30
2022-07-27T06:30:59.594Z,21.40
2022-07-27T06:33:29.350Z,21.40
2022-07-27T06:35:59.045Z,21.40
2022-07-27T06:38:27.860Z,21.40
2022-07-27T06:40:56.895Z,21.40
2022-07-27T06:43:26.606Z,21.40
2022-07-27T06:45:56.128Z,21.40
2022-07-27T06:48:23.950Z,21.40
2022-07-27T06:50:52.823Z,21.40
2022-07-27T06:53:21.695Z,21.40
2022-07-27T06:55:49.715Z,21.40
2022-07-27T06:58:18.138Z,21.40
2022-07-27T07:00:47.478Z,21.40
2022-07-27T07:03:17.263Z,21.40
2022-07-27T07:05:46.721Z,21.40
2022-07-27T07:08:15.559Z,21.40
2022-07-27T07:10:45.190Z,21.40
2022-07-27T07:13:13.639Z,21.40
2022-07-27T07:15:42.488Z,21.50
2022-07-27T07:18:11.259Z,21.50
2022-07-27T07:20:41.113Z,21.50
2022-07-27T07:23:09.520Z,21.80
2022-07-27T07:25:38.480Z,21.60
2022-07-27T07:28:07.231Z,21.70
2022-07-27T07:30:35.305Z,21.70
2022-07-27T07:33:04.094Z,21.80
2022-07-27T07:35:31.924Z,21.80
2022-07-27T07:38:01.070Z,21.80
2022-07-27T07:40:45.071Z,21.90
2022-07-27T07:43:14.296Z,22.00
2022-07-27T07:45:50.711Z,22.00
2022-07-27T07:48:20.590Z,22.10
2022-07-27T07:50:52.048Z,22.10
2022-07-27T07:53:23.212Z,22.20
2022-07-27T07:55:51.865Z,22.20
2022-07-27T07:58:19.981Z,22.20
2022-07-27T08:00:48.131Z,22.20
2022-07-27T08:03:16.231Z,22.20
2022-07-27T08:05:44.477Z,22.20
2022-07-27T08:08:12.592Z,22.20
2022-07-27T08:10:41.965Z,22.20
2022-07-27T08:13:09.777Z,22.20
2022-07-27T08:15:37.644Z,22.20
2022-07-27T08:18:06.648Z,22.20
2022-07-27T08:20:35.341Z,22.20
2022-07-27T08:23:04.959Z,22.20
2022-07-27T08:25:33.438Z,22.20
2022-07-27T08:28:02.995Z,22.20
2022-07-27T08:30:32.253Z,22.20
2022-07-27T08:33:03.184Z,22.20
2022-07-27T08:35:32.707Z,22.20
2022-07-27T08:38:01.857Z,22.20
2022-07-27T08:40:40.382Z,22.20
2022-07-27T08:43:11.358Z,22.20
2022-07-27T08:45:41.360Z,22.30
2022-07-27T08:48:14.053Z,22.30
2022-07-27T08:50:43.155Z,22.40
2022-07-27T08:53:13.961Z,22.40
2022-07-27T08:55:43.592Z,22.50
2022-07-27T08:58:14.215Z,22.40
2022-07-27T09:00:44.070Z,22.50
2022-07-27T09:03:18.440Z,22.50
2022-07-27T09:05:48.716Z,22.60
2022-07-27T09:08:18.387Z,22.60
2022-07-27T09:10:46.260Z,22.70
2022-07-27T09:13:24.446Z,22.80
2022-07-27T09:18:42.298Z,22.80
2022-07-27T09:21:18.543Z,22.90
2022-07-27T09:23:48.521Z,22.90
2022-07-27T09:26:31.760Z,22.90
2022-07-27T09:29:05.415Z,22.90
2022-07-27T09:31:34.182Z,23.00
2022-07-27T09:34:03.722Z,23.00
2022-07-27T09:36:31.936Z,23.10
2022-07-27T09:39:03.786Z,23.10
2022-07-27T09:41:43.042Z,23.10
2022-07-27T09:44:31.777Z,23.20
2022-07-27T09:47:01.051Z,23.20
2022-07-27T09:49:34.303Z,23.20
2022-07-27T09:52:04.343Z,23.20
2022-07-27T09:54:50.511Z,23.20
2022-07-27T09:57:19.317Z,23.30
2022-07-27T09:59:48.520Z,23.30
2022-07-27T10:02:16.703Z,23.40
2022-07-27T10:04:45.024Z,23.40
2022-07-27T10:07:14.250Z,23.40
2022-07-27T10:09:43.183Z,23.40
2022-07-27T10:12:11.363Z,23.40
2022-07-27T10:14:39.142Z,23.50
2022-07-27T10:17:10.831Z,23.50
2022-07-27T10:19:46.268Z,23.50
2022-07-27T10:22:14.450Z,23.50
2022-07-27T10:24:42.444Z,23.40
2022-07-27T10:27:21.020Z,23.40
2022-07-27T10:29:50.545Z,23.50
2022-07-27T10:32:26.413Z,23.50
2022-07-27T10:34:54.419Z,23.60
2022-07-27T10:37:27.363Z,23.60
2022-07-27T10:40:11.330Z,23.60
2022-07-27T10:42:39.630Z,23.60
2022-07-27T10:45:10.569Z,23.60
2022-07-27T10:47:42.260Z,23.70
2022-07-27T10:50:33.064Z,23.70
2022-07-27T10:53:03.963Z,23.70
2022-07-27T10:55:49.277Z,23.80
2022-07-27T10:58:50.118Z,23.80
2022-07-27T11:01:19.836Z,23.80
2022-07-27T11:03:53.610Z,23.90
2022-07-27T11:06:48.162Z,24.00
2022-07-27T11:12:04.404Z,24.00
2022-07-27T11:14:32.254Z,24.10
2022-07-27T11:17:24.452Z,24.20
2022-07-27T11:19:58.191Z,24.20
2022-07-27T11:22:58.919Z,24.20
2022-07-27T11:25:23.283Z,24.30
2022-07-27T11:27:52.355Z,24.30
2022-07-27T11:30:25.185Z,24.30
2022-07-27T11:32:54.596Z,24.30
2022-07-27T11:35:24.073Z,24.40
2022-07-27T11:38:00.247Z,24.40
2022-07-27T11:43:33.850Z,24.30
2022-07-27T11:46:13.011Z,24.30
2022-07-27T11:51:39.920Z,24.20
2022-07-27T11:54:09.070Z,24.20
2022-07-27T11:56:39.396Z,24.20
2022-07-27T11:59:10.394Z,24.10
2022-07-27T12:01:40.580Z,24.10
2022-07-27T12:04:12.856Z,24.10
2022-07-27T12:06:43.278Z,24.10
2022-07-27T12:09:14.246Z,24.10
2022-07-27T12:11:51.874Z,24.20
2022-07-27T12:14:19.994Z,24.20
2022-07-27T12:16:47.862Z,24.20
2022-07-27T12:19:23.817Z,24.20
2022-07-27T12:21:55.846Z,24.20
2022-07-27T12:24:34.642Z,24.30
2022-07-27T12:27:06.568Z,24.40
2022-07-27T12:29:35.055Z,24.50
2022-07-27T12:32:04.987Z,24.60
2022-07-27T12:34:37.017Z,24.70
2022-07-27T12:37:14.078Z,24.70
2022-07-27T12:39:44.479Z,24.70
2022-07-27T12:42:13.076Z,24.70
2022-07-27T12:44:43.647Z,24.60
2022-07-27T12:47:29.419Z,24.50
2022-07-27T12:50:10.452Z,24.50
2022-07-27T12:52:42.863Z,24.50
2022-07-27T12:55:15.645Z,24.50
2022-07-27T12:57:55.596Z,24.50
2022-07-27T13:00:31.042Z,24.50
2022-07-27T13:03:01.312Z,24.60
2022-07-27T13:05:29.308Z,24.60
2022-07-27T13:07:59.066Z,24.70
2022-07-27T13:10:28.218Z,24.70
2022-07-27T13:12:56.169Z,24.70
2022-07-27T13:15:24.054Z,24.90
2022-07-27T13:17:51.920Z,25.00
2022-07-27T13:20:20.165Z,25.10
2022-07-27T13:22:48.198Z,25.10
2022-07-27T13:25:17.987Z,25.10
2022-07-27T13:27:46.974Z,25.00
2022-07-27T13:30:16.162Z,25.00
2022-07-27T13:32:44.847Z,25.00
2022-07-27T13:35:13.276Z,25.20
2022-07-27T13:37:41.705Z,25.20
2022-07-27T13:40:10.778Z,25.40
2022-07-27T13:42:40.083Z,25.40
2022-07-27T13:45:10.794Z,25.40
2022-07-27T13:47:39.089Z,25.30
2022-07-27T13:50:15.201Z,25.10
2022-07-27T13:52:46.410Z,25.00
2022-07-27T13:55:15.235Z,24.90
2022-07-27T13:57:45.541Z,24.80
2022-07-27T14:00:14.673Z,24.70
2022-07-27T14:02:42.870Z,24.60
2022-07-27T14:05:13.127Z,24.60
2022-07-27T14:07:42.804Z,24.50
2022-07-27T14:10:28.846Z,24.50
2022-07-27T14:13:07.467Z,24.60
2022-07-27T14:15:53.727Z,24.60
2022-07-27T14:18:26.737Z,25.00
2022-07-27T14:20:55.718Z,25.10
2022-07-27T14:23:24.999Z,25.30
2022-07-27T14:25:53.342Z,25.90
2022-07-27T14:28:24.062Z,26.40
2022-07-27T14:30:52.453Z,27.40
2022-07-27T14:33:20.624Z,27.20
2022-07-27T14:35:49.158Z,26.80
2022-07-27T14:38:27.775Z,26.30
2022-07-27T14:40:59.274Z,26.10
2022-07-27T14:43:28.909Z,25.90
2022-07-27T14:45:58.319Z,25.80
2022-07-27T14:48:42.600Z,25.70
2022-07-27T14:51:13.955Z,26.20
2022-07-27T14:53:41.843Z,26.50
2022-07-27T14:56:09.719Z,26.50
2022-07-27T14:58:38.880Z,26.40
2022-07-27T15:01:06.843Z,26.10
2022-07-27T15:03:34.818Z,25.90
2022-07-27T15:06:02.862Z,25.70
2022-07-27T15:08:30.711Z,25.70
2022-07-27T15:10:58.726Z,25.60
2022-07-27T15:13:26.682Z,25.50
2022-07-27T15:15:57.949Z,25.40
2022-07-27T15:18:26.119Z,25.30
2022-07-27T15:20:54.046Z,25.40
2022-07-27T15:23:22.289Z,25.50
2022-07-27T15:25:50.297Z,25.40
2022-07-27T15:28:18.130Z,25.30
2022-07-27T15:30:45.983Z,25.20
2022-07-27T15:33:15.146Z,25.10
2022-07-27T15:35:42.992Z,24.90
2022-07-27T15:38:10.805Z,24.90
2022-07-27T15:40:38.883Z,24.90
2022-07-27T15:43:10.612Z,24.90
2022-07-27T15:45:39.343Z,24.90
2022-07-27T15:48:08.415Z,24.90
2022-07-27T15:50:38.130Z,24.90
2022-07-27T15:53:06.810Z,24.80
2022-07-27T15:55:35.270Z,24.70
2022-07-27T15:58:03.306Z,24.70
2022-07-27T16:00:36.902Z,24.70
2022-07-27T16:03:07.299Z,24.70
2022-07-27T16:05:36.782Z,24.60
2022-07-27T16:08:04.901Z,24.70
2022-07-27T16:10:32.774Z,24.70
2022-07-27T16:13:01.307Z,24.70
2022-07-27T16:15:43.887Z,25.00
2022-07-27T16:18:12.075Z,25.10
2022-07-27T16:20:41.299Z,25.10
2022-07-27T16:23:18.518Z,25.10
2022-07-27T16:26:07.510Z,25.00
2022-07-27T16:28:39.473Z,25.00
2022-07-27T16:31:11.501Z,25.00
2022-07-27T16:33:39.526Z,24.90
2022-07-27T16:36:09.099Z,24.80
2022-07-27T16:38:37.821Z,24.80
2022-07-27T16:41:09.399Z,24.70
2022-07-27T16:43:38.565Z,24.80
2022-07-27T16:46:09.977Z,24.70
2022-07-27T16:48:42.405Z,24.70
2022-07-27T16:51:13.383Z,24.70
2022-07-27T16:53:42.365Z,24.70
2022-07-27T16:56:10.677Z,24.90
2022-07-27T16:58:39.429Z,25.00
2022-07-27T17:01:07.478Z,25.20
2022-07-27T17:03:35.329Z,25.30
2022-07-27T17:06:06.625Z,25.40
2022-07-27T17:08:36.686Z,25.50
2022-07-27T17:11:06.427Z,25.60
2022-07-27T17:13:35.750Z,25.70
2022-07-27T17:16:05.517Z,25.70
2022-07-27T17:18:39.587Z,25.60
2022-07-27T17:21:09.374Z,25.70
2022-07-27T17:23:39.830Z,25.70
2022-07-27T17:26:08.929Z,25.70
2022-07-27T17:28:39.536Z,25.60
2022-07-27T17:31:10.152Z,25.50
2022-07-27T17:33:38.338Z,25.50
2022-07-27T17:36:12.331Z,25.40
2022-07-27T17:38:43.983Z,25.30
2022-07-27T17:41:12.522Z,25.30
2022-07-27T17:43:40.578Z,25.40
2022-07-27T17:46:10.494Z,25.40
2022-07-27T17:48:39.070Z,25.40
2022-07-27T17:51:08.605Z,25.40
2022-07-27T17:53:39.509Z,25.40
2022-07-27T17:56:09.124Z,25.40
2022-07-27T17:58:38.057Z,25.40
2022-07-27T18:01:07.162Z,25.30
2022-07-27T18:03:35.705Z,25.30
2022-07-27T18:06:04.050Z,25.20
2022-07-27T18:08:32.093Z,25.10
2022-07-27T18:11:00.481Z,25.00
2022-07-27T18:13:38.806Z,24.90
2022-07-27T18:16:09.026Z,24.80
2022-07-27T18:18:37.354Z,24.80
2022-07-27T18:21:06.070Z,24.70
2022-07-27T18:23:34.590Z,24.70
2022-07-27T18:26:02.878Z,24.70
2022-07-27T18:28:39.000Z,24.60
2022-07-27T18:31:07.748Z,24.50
2022-07-27T18:33:37.023Z,24.50
2022-07-27T18:36:06.387Z,24.50
2022-07-27T18:38:34.661Z,24.40
2022-07-27T18:41:02.982Z,24.30
2022-07-27T18:43:35.357Z,24.30
2022-07-27T18:46:03.345Z,24.30
2022-07-27T18:48:31.830Z,24.20
2022-07-27T18:50:59.791Z,24.20
2022-07-27T18:53:27.786Z,24.20
2022-07-27T18:56:01.851Z,24.10
2022-07-27T18:58:29.736Z,24.10
2022-07-27T19:00:59.708Z,24.00
2022-07-27T19:03:28.067Z,24.00
2022-07-27T19:05:56.325Z,24.00
2022-07-27T19:08:24.489Z,23.90
2022-07-27T19:10:52.568Z,23.90
2022-07-27T19:13:21.160Z,23.80
2022-07-27T19:15:49.200Z,23.80
2022-07-27T19:18:18.564Z,23.80
2022-07-27T19:20:46.825Z,23.80
2022-07-27T19:23:14.820Z,23.70
2022-07-27T19:25:43.489Z,23.70
2022-07-27T19:28:11.695Z,23.70
2022-07-27T19:30:39.900Z,23.60
2022-07-27T19:33:44.585Z,23.60
2022-07-27T19:36:14.065Z,23.60
2022-07-27T19:38:42.039Z,23.50
2022-07-27T19:41:28.469Z,23.50
2022-07-27T19:43:56.474Z,23.50
2022-07-27T19:50:25.096Z,23.40
2022-07-27T19:52:54.598Z,23.30
2022-07-27T19:55:22.685Z,23.30
2022-07-27T19:57:50.701Z,23.30
2022-07-27T20:03:54.511Z,23.20
2022-07-27T20:06:23.525Z,23.10
2022-07-27T20:08:56.044Z,23.10
2022-07-27T20:11:24.142Z,23.10
2022-07-27T20:13:52.241Z,23.10
2022-07-27T20:16:20.220Z,23.00
2022-07-27T20:18:48.176Z,23.00
2022-07-27T20:21:22.705Z,23.00
2022-07-27T20:24:02.193Z,22.90
2022-07-27T20:26:31.639Z,22.90
2022-07-27T20:29:00.468Z,22.80
2022-07-27T20:31:28.486Z,22.80
2022-07-27T20:33:56.397Z,22.80
2022-07-27T20:36:24.281Z,22.80
2022-07-27T20:38:53.499Z,22.70
2022-07-27T20:41:21.430Z,22.70
2022-07-27T20:44:00.526Z,22.70
2022-07-27T20:46:28.426Z,22.60
2022-07-27T20:49:02.478Z,22.60
2022-07-27T20:51:30.861Z,22.60
2022-07-27T20:54:00.200Z,22.60
2022-07-27T20:56:28.018Z,22.50
2022-07-27T20:58:56.432Z,22.50
2022-07-27T21:01:24.384Z,22.50
2022-07-27T21:07:19.934Z,22.40
2022-07-27T21:10:04.480Z,22.40
2022-07-27T21:13:27.895Z,22.30
2022-07-27T21:15:34.005Z,22.30
2022-07-27T21:18:05.861Z,22.30
2022-07-27T21:20:43.077Z,22.30
2022-07-27T21:23:28.528Z,22.20
2022-07-27T21:25:58.021Z,22.20
2022-07-27T21:28:26.362Z,22.20
2022-07-27T21:30:54.200Z,22.20
2022-07-27T21:33:22.068Z,22.10
2022-07-27T21:35:50.079Z,22.20
2022-07-27T21:38:17.915Z,22.10
2022-07-27T21:40:46.694Z,22.00
2022-07-27T21:43:15.891Z,22.10
2022-07-27T21:45:48.355Z,22.00
2022-07-27T21:48:17.611Z,22.00
2022-07-27T21:50:45.555Z,21.90
2022-07-27T21:53:13.402Z,22.00
2022-07-27T21:55:41.419Z,21.90
2022-07-27T21:58:12.112Z,21.90
2022-07-27T22:00:41.430Z,21.90
2022-07-27T22:03:10.133Z,21.90
2022-07-27T22:05:38.022Z,21.80
2022-07-27T22:08:21.262Z,21.80
2022-07-27T22:10:49.234Z,21.80
2022-07-27T22:13:17.141Z,21.70
2022-07-27T22:15:55.776Z,21.80
2022-07-27T22:18:24.122Z,21.70
2022-07-27T22:21:01.255Z,21.70
2022-07-27T22:23:29.319Z,21.60
2022-07-27T22:25:58.105Z,21.60
2022-07-27T22:28:26.394Z,21.60
2022-07-27T22:31:19.739Z,21.60
2022-07-27T22:33:47.419Z,21.40
2022-07-27T22:36:15.513Z,21.60
2022-07-27T22:38:43.638Z,21.50
2022-07-27T22:41:29.058Z,21.60
2022-07-27T22:44:07.309Z,21.50
2022-07-27T22:46:36.680Z,21.50
2022-07-27T22:49:11.117Z,21.50
2022-07-27T22:51:49.398Z,21.50
2022-07-27T22:54:24.747Z,21.50
2022-07-27T22:56:57.342Z,21.50
2022-07-27T22:59:26.427Z,21.40
2022-07-27T23:01:55.680Z,21.40
2022-07-27T23:04:23.710Z,21.40
2022-07-27T23:06:51.669Z,21.30
2022-07-27T23:09:25.096Z,21.30
2022-07-27T23:11:53.555Z,21.30
2022-07-27T23:14:25.831Z,21.30
2022-07-27T23:16:55.499Z,21.30
2022-07-27T23:19:41.898Z,21.30
2022-07-27T23:22:11.377Z,21.20
2022-07-27T23:24:40.163Z,21.30
2022-07-27T23:27:31.379Z,21.20
2022-07-27T23:30:10.649Z,21.20
2022-07-27T23:32:39.953Z,21.20
2022-07-27T23:35:26.410Z,21.20
2022-07-27T23:37:54.307Z,21.10
2022-07-27T23:40:41.220Z,21.10
2022-07-27T23:43:12.336Z,21.10
2022-07-27T23:45:40.210Z,21.10
2022-07-27T23:48:09.499Z,21.00
2022-07-27T23:50:38.046Z,21.00
2022-07-27T23:53:15.564Z,21.00
2022-07-27T23:55:43.629Z,21.00
2022-07-27T23:58:11.975Z,21.00
